| Date | Time | Temp. (oF) | Dew Point (oF) | Rel. Hum. (%) | Press. (in.) | Wind Dir. | Wind Speed (mph) | Hourly Rainfall (in.) |
|
|---|---|---|---|---|---|---|---|---|---|
| 1 | 12/19 | 00:00 | 30 | 17 | 60 | 30.52 | WNW | 6 | 0.00 |
| 2 | 12/18 | 23:00 | 31 | 17 | 58 | 30.51 | WNW | 6 | 0.00 |
| 3 | 12/18 | 22:00 | 32 | 19 | 59 | 30.48 | WNW | 10 | 0.00 |
| 4 | 12/18 | 21:00 | 33 | 22 | 64 | 30.45 | WNW | 8 | 0.00 |
| 5 | 12/18 | 20:00 | 34 | 21 | 61 | 30.40 | WNW | 8 | 0.00 |
| 6 | 12/18 | 19:00 | 35 | 24 | 65 | 30.36 | WNW | 13 | 0.00 |
| 7 | 12/18 | 18:00 | 36 | 27 | 70 | 30.31 | WNW | 7 | 0.00 |
| 8 | 12/18 | 17:00 | 36 | 27 | 72 | 30.23 | WNW | 6 | 0.00 |
| 9 | 12/18 | 16:00 | 38 | 29 | 72 | 30.19 | WNW | 12 | 0.00 |
| 10 | 12/18 | 15:00 | 39 | 31 | 74 | 30.12 | WNW | 6 | 0.00 |
| 11 | 12/18 | 14:00 | 41 | 33 | 73 | 30.05 | WNW | 11 | 0.00 |
| 12 | 12/18 | 13:00 | 48 | 41 | 78 | 29.94 | WNW | 17 | 0.02 |
| 13 | 12/18 | 12:00 | 56 | 55 | 100 | 29.87 | W | 5 | 0.08 |
| 14 | 12/18 | 11:00 | 55 | 54 | 98 | 29.89 | W | 7 | 0.06 |
| 15 | 12/18 | 10:00 | 56 | 54 | 96 | 29.82 | WNW | 6 | 0.00 |
| 16 | 12/18 | 09:00 | 54 | 53 | 98 | 29.78 | W | 8 | 0.00 |
| 17 | 12/18 | 08:00 | 48 | 48 | 100 | 29.78 | WNW | 2 | 0.00 |
| 18 | 12/18 | 07:00 | 52 | 50 | 95 | 29.80 | W | 3 | 0.00 |
| 19 | 12/18 | 06:00 | 52 | 51 | 98 | 29.68 | W | 14 | 0.00 |
| 20 | 12/18 | 05:00 | 47 | 46 | 100 | 29.72 | W | 5 | 0.00 |
| 21 | 12/18 | 04:00 | 45 | 45 | 100 | 29.74 | WNW | 5 | 0.00 |
| 22 | 12/18 | 03:00 | 42 | 41 | 100 | 29.79 | WNW | 8 | 0.00 |
| 23 | 12/18 | 02:00 | 35 | 35 | 100 | 29.77 | WNW | 0 | 0.00 |
| 24 | 12/18 | 01:00 | 33 | 32 | 100 | 29.83 | WNW | 0 | 0.00 |